sensor_id;sensor_type;location;lat;lon;timestamp;P1;durP1;ratioP1;P2;durP2;ratioP2
19940;SDS011;10132;50.864;5.176;2023-06-19T00:01:49;4.15;;;3.75;;
19940;SDS011;10132;50.864;5.176;2023-06-19T00:03:51;4.85;;;4.35;;
19940;SDS011;10132;50.864;5.176;2023-06-19T00:05:54;4.70;;;4.30;;
19940;SDS011;10132;50.864;5.176;2023-06-19T00:07:56;6.05;;;4.25;;
19940;SDS011;10132;50.864;5.176;2023-06-19T00:09:58;4.85;;;4.40;;
19940;SDS011;10132;50.864;5.176;2023-06-19T00:12:00;4.90;;;4.50;;
19940;SDS011;10132;50.864;5.176;2023-06-19T00:14:04;5.07;;;4.13;;
19940;SDS011;10132;50.864;5.176;2023-06-19T00:16:06;5.63;;;4.32;;
19940;SDS011;10132;50.864;5.176;2023-06-19T00:18:08;4.90;;;4.40;;
19940;SDS011;10132;50.864;5.176;2023-06-19T00:20:10;4.85;;;4.35;;
19940;SDS011;10132;50.864;5.176;2023-06-19T00:22:15;4.50;;;4.03;;
19940;SDS011;10132;50.864;5.176;2023-06-19T00:24:17;4.65;;;4.10;;
19940;SDS011;10132;50.864;5.176;2023-06-19T00:26:19;4.60;;;4.13;;
19940;SDS011;10132;50.864;5.176;2023-06-19T00:28:22;4.30;;;3.90;;
19940;SDS011;10132;50.864;5.176;2023-06-19T00:30:25;4.30;;;3.90;;
19940;SDS011;10132;50.864;5.176;2023-06-19T00:32:32;5.72;;;4.10;;
19940;SDS011;10132;50.864;5.176;2023-06-19T00:34:45;4.63;;;4.20;;
19940;SDS011;10132;50.864;5.176;2023-06-19T00:36:48;4.93;;;4.20;;
19940;SDS011;10132;50.864;5.176;2023-06-19T00:38:51;4.93;;;4.43;;
19940;SDS011;10132;50.864;5.176;2023-06-19T00:40:53;5.05;;;4.43;;
19940;SDS011;10132;50.864;5.176;2023-06-19T00:42:56;5.25;;;4.15;;
19940;SDS011;10132;50.864;5.176;2023-06-19T00:44:59;4.38;;;3.97;;
19940;SDS011;10132;50.864;5.176;2023-06-19T00:47:01;4.55;;;4.10;;
19940;SDS011;10132;50.864;5.176;2023-06-19T00:49:05;6.25;;;4.22;;
19940;SDS011;10132;50.864;5.176;2023-06-19T00:51:07;4.50;;;4.10;;
19940;SDS011;10132;50.864;5.176;2023-06-19T00:53:10;4.45;;;4.05;;
19940;SDS011;10132;50.864;5.176;2023-06-19T00:55:14;4.30;;;3.90;;
19940;SDS011;10132;50.864;5.176;2023-06-19T00:57:17;4.25;;;3.78;;
19940;SDS011;10132;50.864;5.176;2023-06-19T00:59:19;4.90;;;3.95;;
19940;SDS011;10132;50.864;5.176;2023-06-19T01:01:22;4.63;;;4.00;;
19940;SDS011;10132;50.864;5.176;2023-06-19T01:03:24;4.22;;;3.70;;
19940;SDS011;10132;50.864;5.176;2023-06-19T01:05:26;4.32;;;3.83;;
19940;SDS011;10132;50.864;5.176;2023-06-19T01:07:29;4.55;;;4.07;;
19940;SDS011;10132;50.864;5.176;2023-06-19T01:09:36;3.80;;;3.40;;
19940;SDS011;10132;50.864;5.176;2023-06-19T01:11:55;5.60;;;3.90;;
19940;SDS011;10132;50.864;5.176;2023-06-19T01:14:04;8.10;;;3.90;;
19940;SDS011;10132;50.864;5.176;2023-06-19T01:16:10;4.22;;;3.83;;
19940;SDS011;10132;50.864;5.176;2023-06-19T01:18:12;4.50;;;3.50;;
19940;SDS011;10132;50.864;5.176;2023-06-19T01:20:15;5.30;;;3.88;;
19940;SDS011;10132;50.864;5.176;2023-06-19T01:22:26;4.30;;;3.72;;
19940;SDS011;10132;50.864;5.176;2023-06-19T01:24:28;4.60;;;3.55;;
19940;SDS011;10132;50.864;5.176;2023-06-19T01:26:30;4.18;;;3.70;;
19940;SDS011;10132;50.864;5.176;2023-06-19T01:28:33;5.28;;;3.50;;
19940;SDS011;10132;50.864;5.176;2023-06-19T01:30:38;4.63;;;3.50;;
19940;SDS011;10132;50.864;5.176;2023-06-19T01:32:44;4.10;;;3.45;;
19940;SDS011;10132;50.864;5.176;2023-06-19T01:34:54;3.72;;;3.40;;
19940;SDS011;10132;50.864;5.176;2023-06-19T01:36:58;6.00;;;3.90;;
19940;SDS011;10132;50.864;5.176;2023-06-19T01:39:02;4.28;;;3.17;;
19940;SDS011;10132;50.864;5.176;2023-06-19T01:41:04;6.55;;;3.85;;
19940;SDS011;10132;50.864;5.176;2023-06-19T01:43:09;7.03;;;3.33;;
19940;SDS011;10132;50.864;5.176;2023-06-19T01:45:12;4.72;;;3.80;;
19940;SDS011;10132;50.864;5.176;2023-06-19T01:47:14;3.65;;;3.33;;
19940;SDS011;10132;50.864;5.176;2023-06-19T01:49:20;4.38;;;3.30;;
19940;SDS011;10132;50.864;5.176;2023-06-19T01:51:21;5.72;;;4.07;;
19940;SDS011;10132;50.864;5.176;2023-06-19T01:53:23;4.40;;;3.83;;
19940;SDS011;10132;50.864;5.176;2023-06-19T01:55:27;6.65;;;3.88;;
19940;SDS011;10132;50.864;5.176;2023-06-19T01:57:29;4.95;;;3.75;;
19940;SDS011;10132;50.864;5.176;2023-06-19T01:59:31;3.90;;;3.33;;
19940;SDS011;10132;50.864;5.176;2023-06-19T02:01:33;4.05;;;3.63;;
19940;SDS011;10132;50.864;5.176;2023-06-19T02:03:36;6.47;;;3.60;;
19940;SDS011;10132;50.864;5.176;2023-06-19T02:05:37;7.93;;;3.50;;
19940;SDS011;10132;50.864;5.176;2023-06-19T02:07:40;4.35;;;3.65;;
19940;SDS011;10132;50.864;5.176;2023-06-19T02:09:42;4.15;;;3.42;;
19940;SDS011;10132;50.864;5.176;2023-06-19T02:11:45;5.15;;;3.60;;
19940;SDS011;10132;50.864;5.176;2023-06-19T02:13:48;5.85;;;3.63;;
19940;SDS011;10132;50.864;5.176;2023-06-19T02:15:49;5.03;;;3.58;;
19940;SDS011;10132;50.864;5.176;2023-06-19T02:17:51;4.90;;;3.50;;
19940;SDS011;10132;50.864;5.176;2023-06-19T02:19:55;4.43;;;3.50;;
19940;SDS011;10132;50.864;5.176;2023-06-19T02:21:56;3.50;;;3.20;;
19940;SDS011;10132;50.864;5.176;2023-06-19T02:23:58;3.97;;;3.42;;
19940;SDS011;10132;50.864;5.176;2023-06-19T02:26:00;6.20;;;3.97;;
19940;SDS011;10132;50.864;5.176;2023-06-19T02:28:04;4.65;;;3.30;;
19940;SDS011;10132;50.864;5.176;2023-06-19T02:30:07;3.72;;;3.33;;
19940;SDS011;10132;50.864;5.176;2023-06-19T02:32:09;3.85;;;3.40;;
19940;SDS011;10132;50.864;5.176;2023-06-19T02:34:11;3.70;;;3.40;;
19940;SDS011;10132;50.864;5.176;2023-06-19T02:36:14;6.07;;;4.00;;
19940;SDS011;10132;50.864;5.176;2023-06-19T02:38:19;5.00;;;3.70;;
19940;SDS011;10132;50.864;5.176;2023-06-19T02:40:21;4.45;;;3.75;;
19940;SDS011;10132;50.864;5.176;2023-06-19T02:42:23;5.47;;;3.65;;
19940;SDS011;10132;50.864;5.176;2023-06-19T02:44:26;5.00;;;3.58;;
19940;SDS011;10132;50.864;5.176;2023-06-19T02:46:28;4.25;;;3.50;;
19940;SDS011;10132;50.864;5.176;2023-06-19T02:48:30;4.82;;;4.00;;
19940;SDS011;10132;50.864;5.176;2023-06-19T02:50:32;5.28;;;3.60;;
19940;SDS011;10132;50.864;5.176;2023-06-19T02:52:34;7.47;;;3.60;;
19940;SDS011;10132;50.864;5.176;2023-06-19T02:54:36;3.97;;;3.53;;
19940;SDS011;10132;50.864;5.176;2023-06-19T02:56:38;4.13;;;3.72;;
19940;SDS011;10132;50.864;5.176;2023-06-19T02:58:40;4.88;;;3.55;;
19940;SDS011;10132;50.864;5.176;2023-06-19T03:00:44;6.28;;;3.60;;
19940;SDS011;10132;50.864;5.176;2023-06-19T03:02:46;5.68;;;3.65;;
19940;SDS011;10132;50.864;5.176;2023-06-19T03:04:48;4.55;;;3.65;;
19940;SDS011;10132;50.864;5.176;2023-06-19T03:06:50;4.53;;;3.53;;
19940;SDS011;10132;50.864;5.176;2023-06-19T03:08:52;5.28;;;4.20;;
19940;SDS011;10132;50.864;5.176;2023-06-19T03:10:54;7.70;;;3.60;;
19940;SDS011;10132;50.864;5.176;2023-06-19T03:12:56;5.07;;;3.60;;
19940;SDS011;10132;50.864;5.176;2023-06-19T03:14:58;3.95;;;3.35;;
19940;SDS011;10132;50.864;5.176;2023-06-19T03:17:02;5.32;;;3.80;;
19940;SDS011;10132;50.864;5.176;2023-06-19T03:19:04;5.47;;;3.72;;
19940;SDS011;10132;50.864;5.176;2023-06-19T03:21:06;4.20;;;3.80;;
19940;SDS011;10132;50.864;5.176;2023-06-19T03:23:08;5.13;;;3.53;;
19940;SDS011;10132;50.864;5.176;2023-06-19T03:25:10;5.70;;;3.67;;
19940;SDS011;10132;50.864;5.176;2023-06-19T03:27:12;9.13;;;3.80;;
19940;SDS011;10132;50.864;5.176;2023-06-19T03:29:14;5.20;;;3.95;;
19940;SDS011;10132;50.864;5.176;2023-06-19T03:31:16;4.85;;;3.83;;
19940;SDS011;10132;50.864;5.176;2023-06-19T03:33:19;6.35;;;3.50;;
19940;SDS011;10132;50.864;5.176;2023-06-19T03:35:21;4.32;;;3.70;;
19940;SDS011;10132;50.864;5.176;2023-06-19T03:37:23;4.65;;;3.75;;
19940;SDS011;10132;50.864;5.176;2023-06-19T03:39:25;4.40;;;3.60;;
19940;SDS011;10132;50.864;5.176;2023-06-19T03:41:27;5.97;;;4.03;;
19940;SDS011;10132;50.864;5.176;2023-06-19T03:43:29;4.78;;;3.83;;
19940;SDS011;10132;50.864;5.176;2023-06-19T03:45:31;3.85;;;3.45;;
19940;SDS011;10132;50.864;5.176;2023-06-19T03:47:33;4.05;;;3.65;;
19940;SDS011;10132;50.864;5.176;2023-06-19T03:49:36;5.55;;;4.10;;
19940;SDS011;10132;50.864;5.176;2023-06-19T03:51:38;9.60;;;4.30;;
19940;SDS011;10132;50.864;5.176;2023-06-19T03:53:40;7.30;;;4.20;;
19940;SDS011;10132;50.864;5.176;2023-06-19T03:55:42;5.32;;;3.95;;
19940;SDS011;10132;50.864;5.176;2023-06-19T03:57:44;4.63;;;4.15;;
19940;SDS011;10132;50.864;5.176;2023-06-19T03:59:46;7.63;;;3.97;;
19940;SDS011;10132;50.864;5.176;2023-06-19T04:01:48;5.63;;;3.78;;
19940;SDS011;10132;50.864;5.176;2023-06-19T04:03:50;4.93;;;3.70;;
19940;SDS011;10132;50.864;5.176;2023-06-19T04:05:54;5.50;;;3.72;;
19940;SDS011;10132;50.864;5.176;2023-06-19T04:07:56;5.40;;;4.32;;
19940;SDS011;10132;50.864;5.176;2023-06-19T04:09:57;4.35;;;3.65;;
19940;SDS011;10132;50.864;5.176;2023-06-19T04:11:59;6.40;;;4.22;;
19940;SDS011;10132;50.864;5.176;2023-06-19T04:14:01;5.53;;;4.43;;
19940;SDS011;10132;50.864;5.176;2023-06-19T04:16:03;5.18;;;4.18;;
19940;SDS011;10132;50.864;5.176;2023-06-19T04:18:05;5.35;;;4.85;;
19940;SDS011;10132;50.864;5.176;2023-06-19T04:20:08;10.38;;;5.25;;
19940;SDS011;10132;50.864;5.176;2023-06-19T04:22:12;7.93;;;5.07;;
19940;SDS011;10132;50.864;5.176;2023-06-19T04:24:14;5.97;;;5.13;;
19940;SDS011;10132;50.864;5.176;2023-06-19T04:26:16;5.57;;;4.95;;
19940;SDS011;10132;50.864;5.176;2023-06-19T04:28:19;8.18;;;5.25;;
19940;SDS011;10132;50.864;5.176;2023-06-19T04:30:21;8.98;;;5.95;;
19940;SDS011;10132;50.864;5.176;2023-06-19T04:32:22;6.43;;;5.82;;
19940;SDS011;10132;50.864;5.176;2023-06-19T04:34:24;9.18;;;6.15;;
19940;SDS011;10132;50.864;5.176;2023-06-19T04:36:26;9.25;;;6.18;;
19940;SDS011;10132;50.864;5.176;2023-06-19T04:38:30;6.78;;;6.18;;
19940;SDS011;10132;50.864;5.176;2023-06-19T04:40:32;7.40;;;6.50;;
19940;SDS011;10132;50.864;5.176;2023-06-19T04:42:34;8.55;;;7.70;;
19940;SDS011;10132;50.864;5.176;2023-06-19T04:44:38;8.40;;;7.60;;
19940;SDS011;10132;50.864;5.176;2023-06-19T04:46:42;8.90;;;8.00;;
19940;SDS011;10132;50.864;5.176;2023-06-19T04:48:44;8.35;;;7.55;;
19940;SDS011;10132;50.864;5.176;2023-06-19T04:50:51;7.93;;;6.78;;
19940;SDS011;10132;50.864;5.176;2023-06-19T04:52:53;10.02;;;7.93;;
19940;SDS011;10132;50.864;5.176;2023-06-19T04:54:56;9.13;;;7.78;;
19940;SDS011;10132;50.864;5.176;2023-06-19T04:56:58;12.77;;;7.50;;
19940;SDS011;10132;50.864;5.176;2023-06-19T04:59:00;8.98;;;7.03;;
19940;SDS011;10132;50.864;5.176;2023-06-19T05:01:02;9.63;;;7.25;;
19940;SDS011;10132;50.864;5.176;2023-06-19T05:03:04;10.88;;;6.80;;
19940;SDS011;10132;50.864;5.176;2023-06-19T05:05:06;9.43;;;7.45;;
19940;SDS011;10132;50.864;5.176;2023-06-19T05:07:09;10.65;;;7.85;;
19940;SDS011;10132;50.864;5.176;2023-06-19T05:09:12;9.65;;;7.93;;
19940;SDS011;10132;50.864;5.176;2023-06-19T05:11:16;8.18;;;7.07;;
19940;SDS011;10132;50.864;5.176;2023-06-19T05:13:18;8.70;;;6.93;;
19940;SDS011;10132;50.864;5.176;2023-06-19T05:15:20;8.38;;;6.88;;
19940;SDS011;10132;50.864;5.176;2023-06-19T05:17:22;7.97;;;7.18;;
19940;SDS011;10132;50.864;5.176;2023-06-19T05:19:24;8.32;;;6.90;;
19940;SDS011;10132;50.864;5.176;2023-06-19T05:21:26;9.80;;;7.47;;
19940;SDS011;10132;50.864;5.176;2023-06-19T05:23:28;8.75;;;7.20;;
19940;SDS011;10132;50.864;5.176;2023-06-19T05:25:29;10.32;;;7.28;;
19940;SDS011;10132;50.864;5.176;2023-06-19T05:27:33;10.18;;;7.68;;
19940;SDS011;10132;50.864;5.176;2023-06-19T05:29:35;9.85;;;7.53;;
19940;SDS011;10132;50.864;5.176;2023-06-19T05:31:37;9.27;;;7.15;;
19940;SDS011;10132;50.864;5.176;2023-06-19T05:33:39;7.95;;;7.15;;
19940;SDS011;10132;50.864;5.176;2023-06-19T05:35:41;7.45;;;6.75;;
19940;SDS011;10132;50.864;5.176;2023-06-19T05:37:43;7.35;;;6.57;;
19940;SDS011;10132;50.864;5.176;2023-06-19T05:39:46;8.75;;;6.68;;
19940;SDS011;10132;50.864;5.176;2023-06-19T05:41:47;12.45;;;6.72;;
19940;SDS011;10132;50.864;5.176;2023-06-19T05:43:51;8.25;;;6.88;;
19940;SDS011;10132;50.864;5.176;2023-06-19T05:45:53;7.47;;;6.70;;
19940;SDS011;10132;50.864;5.176;2023-06-19T05:47:56;7.50;;;6.72;;
19940;SDS011;10132;50.864;5.176;2023-06-19T05:49:59;7.78;;;7.07;;
19940;SDS011;10132;50.864;5.176;2023-06-19T05:52:01;8.77;;;7.07;;
19940;SDS011;10132;50.864;5.176;2023-06-19T05:54:03;7.90;;;7.20;;
19940;SDS011;10132;50.864;5.176;2023-06-19T05:56:07;7.72;;;6.55;;
19940;SDS011;10132;50.864;5.176;2023-06-19T05:58:09;8.18;;;6.25;;
19940;SDS011;10132;50.864;5.176;2023-06-19T06:00:13;7.65;;;6.97;;
19940;SDS011;10132;50.864;5.176;2023-06-19T06:02:16;8.07;;;6.57;;
19940;SDS011;10132;50.864;5.176;2023-06-19T06:04:18;8.35;;;6.57;;
19940;SDS011;10132;50.864;5.176;2023-06-19T06:06:22;9.50;;;6.53;;
19940;SDS011;10132;50.864;5.176;2023-06-19T06:08:25;8.82;;;6.68;;
19940;SDS011;10132;50.864;5.176;2023-06-19T06:10:27;9.52;;;7.13;;
19940;SDS011;10132;50.864;5.176;2023-06-19T06:12:29;8.23;;;7.15;;
19940;SDS011;10132;50.864;5.176;2023-06-19T06:14:31;8.80;;;6.63;;
19940;SDS011;10132;50.864;5.176;2023-06-19T06:16:34;7.80;;;6.47;;
19940;SDS011;10132;50.864;5.176;2023-06-19T06:18:36;8.18;;;6.38;;
19940;SDS011;10132;50.864;5.176;2023-06-19T06:20:38;8.15;;;6.68;;
19940;SDS011;10132;50.864;5.176;2023-06-19T06:22:40;8.35;;;6.55;;
19940;SDS011;10132;50.864;5.176;2023-06-19T06:24:43;7.45;;;6.40;;
19940;SDS011;10132;50.864;5.176;2023-06-19T06:26:46;8.35;;;6.32;;
19940;SDS011;10132;50.864;5.176;2023-06-19T06:28:48;8.07;;;7.28;;
19940;SDS011;10132;50.864;5.176;2023-06-19T06:30:50;7.07;;;6.40;;
19940;SDS011;10132;50.864;5.176;2023-06-19T06:32:53;7.55;;;6.85;;
19940;SDS011;10132;50.864;5.176;2023-06-19T06:34:55;9.95;;;7.03;;
19940;SDS011;10132;50.864;5.176;2023-06-19T06:36:57;6.88;;;6.15;;
19940;SDS011;10132;50.864;5.176;2023-06-19T06:38:59;9.20;;;7.13;;
19940;SDS011;10132;50.864;5.176;2023-06-19T06:41:01;8.07;;;7.28;;
19940;SDS011;10132;50.864;5.176;2023-06-19T06:43:03;7.20;;;6.50;;
19940;SDS011;10132;50.864;5.176;2023-06-19T06:45:06;8.40;;;6.65;;
19940;SDS011;10132;50.864;5.176;2023-06-19T06:47:08;7.80;;;6.35;;
19940;SDS011;10132;50.864;5.176;2023-06-19T06:49:12;6.22;;;5.32;;
19940;SDS011;10132;50.864;5.176;2023-06-19T06:51:16;6.40;;;5.80;;
19940;SDS011;10132;50.864;5.176;2023-06-19T06:53:18;7.30;;;5.55;;
19940;SDS011;10132;50.864;5.176;2023-06-19T06:55:22;7.75;;;6.07;;
19940;SDS011;10132;50.864;5.176;2023-06-19T06:57:24;7.78;;;5.45;;
19940;SDS011;10132;50.864;5.176;2023-06-19T06:59:26;6.45;;;5.75;;
19940;SDS011;10132;50.864;5.176;2023-06-19T07:01:28;6.07;;;5.43;;
19940;SDS011;10132;50.864;5.176;2023-06-19T07:03:31;6.57;;;5.97;;
19940;SDS011;10132;50.864;5.176;2023-06-19T07:05:34;7.35;;;6.65;;
19940;SDS011;10132;50.864;5.176;2023-06-19T07:07:36;8.10;;;6.82;;
19940;SDS011;10132;50.864;5.176;2023-06-19T07:09:38;8.23;;;6.72;;
19940;SDS011;10132;50.864;5.176;2023-06-19T07:11:40;7.18;;;6.43;;
19940;SDS011;10132;50.864;5.176;2023-06-19T07:13:42;7.10;;;6.50;;
19940;SDS011;10132;50.864;5.176;2023-06-19T07:15:43;9.88;;;6.60;;
19940;SDS011;10132;50.864;5.176;2023-06-19T07:17:46;7.68;;;5.93;;
19940;SDS011;10132;50.864;5.176;2023-06-19T07:19:48;6.93;;;5.68;;
19940;SDS011;10132;50.864;5.176;2023-06-19T07:21:51;6.82;;;6.22;;
19940;SDS011;10132;50.864;5.176;2023-06-19T07:23:53;7.40;;;6.45;;
19940;SDS011;10132;50.864;5.176;2023-06-19T07:25:55;7.65;;;6.80;;
19940;SDS011;10132;50.864;5.176;2023-06-19T07:27:58;9.45;;;6.45;;
19940;SDS011;10132;50.864;5.176;2023-06-19T07:30:00;7.38;;;5.90;;
19940;SDS011;10132;50.864;5.176;2023-06-19T07:32:02;8.45;;;6.82;;
19940;SDS011;10132;50.864;5.176;2023-06-19T07:34:04;8.57;;;6.20;;
19940;SDS011;10132;50.864;5.176;2023-06-19T07:36:07;6.93;;;6.20;;
19940;SDS011;10132;50.864;5.176;2023-06-19T07:38:15;5.97;;;5.47;;
19940;SDS011;10132;50.864;5.176;2023-06-19T07:40:17;6.38;;;5.85;;
19940;SDS011;10132;50.864;5.176;2023-06-19T07:42:19;7.43;;;6.72;;
19940;SDS011;10132;50.864;5.176;2023-06-19T07:44:21;8.63;;;6.32;;
19940;SDS011;10132;50.864;5.176;2023-06-19T07:46:23;7.60;;;6.85;;
19940;SDS011;10132;50.864;5.176;2023-06-19T07:48:25;10.73;;;6.97;;
19940;SDS011;10132;50.864;5.176;2023-06-19T07:50:27;7.93;;;7.22;;
19940;SDS011;10132;50.864;5.176;2023-06-19T07:52:29;8.00;;;7.03;;
19940;SDS011;10132;50.864;5.176;2023-06-19T07:54:33;7.85;;;6.38;;
19940;SDS011;10132;50.864;5.176;2023-06-19T07:56:35;6.90;;;6.30;;
19940;SDS011;10132;50.864;5.176;2023-06-19T07:58:37;7.78;;;7.05;;
19940;SDS011;10132;50.864;5.176;2023-06-19T08:00:39;7.85;;;7.05;;
19940;SDS011;10132;50.864;5.176;2023-06-19T08:02:41;22.48;;;9.27;;
19940;SDS011;10132;50.864;5.176;2023-06-19T08:04:43;11.82;;;6.63;;
19940;SDS011;10132;50.864;5.176;2023-06-19T08:06:46;51.33;;;9.70;;
19940;SDS011;10132;50.864;5.176;2023-06-19T08:08:48;9.90;;;6.20;;
19940;SDS011;10132;50.864;5.176;2023-06-19T08:10:51;19.92;;;8.18;;
19940;SDS011;10132;50.864;5.176;2023-06-19T08:12:53;15.32;;;8.02;;
19940;SDS011;10132;50.864;5.176;2023-06-19T08:14:55;6.60;;;6.00;;
19940;SDS011;10132;50.864;5.176;2023-06-19T08:16:57;9.02;;;6.70;;
19940;SDS011;10132;50.864;5.176;2023-06-19T08:18:59;8.45;;;5.68;;
19940;SDS011;10132;50.864;5.176;2023-06-19T08:21:00;6.90;;;6.22;;
19940;SDS011;10132;50.864;5.176;2023-06-19T08:23:02;7.70;;;5.75;;
19940;SDS011;10132;50.864;5.176;2023-06-19T08:25:05;7.05;;;5.47;;
19940;SDS011;10132;50.864;5.176;2023-06-19T08:27:08;63.22;;;12.18;;
19940;SDS011;10132;50.864;5.176;2023-06-19T08:29:10;6.40;;;5.72;;
19940;SDS011;10132;50.864;5.176;2023-06-19T08:31:12;6.57;;;5.82;;
19940;SDS011;10132;50.864;5.176;2023-06-19T08:33:14;10.77;;;5.95;;
19940;SDS011;10132;50.864;5.176;2023-06-19T08:35:16;7.88;;;6.25;;
19940;SDS011;10132;50.864;5.176;2023-06-19T08:37:18;7.82;;;7.03;;
19940;SDS011;10132;50.864;5.176;2023-06-19T08:39:20;7.28;;;6.57;;
19940;SDS011;10132;50.864;5.176;2023-06-19T08:41:22;7.90;;;6.68;;
19940;SDS011;10132;50.864;5.176;2023-06-19T08:43:26;7.70;;;6.93;;
19940;SDS011;10132;50.864;5.176;2023-06-19T08:45:28;6.00;;;5.38;;
19940;SDS011;10132;50.864;5.176;2023-06-19T08:47:31;7.88;;;6.00;;
19940;SDS011;10132;50.864;5.176;2023-06-19T08:49:34;7.45;;;5.78;;
19940;SDS011;10132;50.864;5.176;2023-06-19T08:51:36;8.00;;;5.50;;
19940;SDS011;10132;50.864;5.176;2023-06-19T08:53:44;8.55;;;5.70;;
19940;SDS011;10132;50.864;5.176;2023-06-19T08:55:47;7.93;;;5.43;;
19940;SDS011;10132;50.864;5.176;2023-06-19T08:57:51;5.88;;;4.88;;
19940;SDS011;10132;50.864;5.176;2023-06-19T08:59:54;7.55;;;5.43;;
19940;SDS011;10132;50.864;5.176;2023-06-19T09:01:56;6.63;;;5.25;;
19940;SDS011;10132;50.864;5.176;2023-06-19T09:03:58;7.47;;;5.20;;
19940;SDS011;10132;50.864;5.176;2023-06-19T09:06:02;6.93;;;5.47;;
19940;SDS011;10132;50.864;5.176;2023-06-19T09:08:05;6.72;;;6.03;;
19940;SDS011;10132;50.864;5.176;2023-06-19T09:10:14;6.68;;;5.97;;
19940;SDS011;10132;50.864;5.176;2023-06-19T09:12:17;9.98;;;6.00;;
19940;SDS011;10132;50.864;5.176;2023-06-19T09:14:19;8.73;;;5.65;;
19940;SDS011;10132;50.864;5.176;2023-06-19T09:16:27;8.93;;;5.40;;
19940;SDS011;10132;50.864;5.176;2023-06-19T09:18:42;9.07;;;5.47;;
19940;SDS011;10132;50.864;5.176;2023-06-19T09:20:45;8.13;;;5.32;;
19940;SDS011;10132;50.864;5.176;2023-06-19T09:22:48;7.05;;;4.45;;
19940;SDS011;10132;50.864;5.176;2023-06-19T09:24:50;8.82;;;5.70;;
19940;SDS011;10132;50.864;5.176;2023-06-19T09:26:52;6.22;;;5.63;;
19940;SDS011;10132;50.864;5.176;2023-06-19T09:28:53;6.55;;;5.72;;
19940;SDS011;10132;50.864;5.176;2023-06-19T09:30:56;10.57;;;6.20;;
19940;SDS011;10132;50.864;5.176;2023-06-19T09:33:07;7.40;;;5.53;;
19940;SDS011;10132;50.864;5.176;2023-06-19T09:35:09;7.40;;;5.45;;
19940;SDS011;10132;50.864;5.176;2023-06-19T09:37:11;6.05;;;5.47;;
19940;SDS011;10132;50.864;5.176;2023-06-19T09:39:13;7.70;;;6.22;;
19940;SDS011;10132;50.864;5.176;2023-06-19T09:41:16;7.05;;;6.03;;
19940;SDS011;10132;50.864;5.176;2023-06-19T09:43:22;7.30;;;5.80;;
19940;SDS011;10132;50.864;5.176;2023-06-19T09:45:25;7.50;;;5.50;;
19940;SDS011;10132;50.864;5.176;2023-06-19T09:47:30;6.25;;;5.20;;
19940;SDS011;10132;50.864;5.176;2023-06-19T09:49:37;6.38;;;5.60;;
19940;SDS011;10132;50.864;5.176;2023-06-19T09:51:41;7.13;;;6.13;;
19940;SDS011;10132;50.864;5.176;2023-06-19T09:53:44;7.07;;;6.38;;
19940;SDS011;10132;50.864;5.176;2023-06-19T09:55:47;9.15;;;5.57;;
19940;SDS011;10132;50.864;5.176;2023-06-19T09:57:51;6.53;;;5.68;;
19940;SDS011;10132;50.864;5.176;2023-06-19T09:59:55;5.70;;;5.10;;
19940;SDS011;10132;50.864;5.176;2023-06-19T10:01:57;8.00;;;5.72;;
19940;SDS011;10132;50.864;5.176;2023-06-19T10:04:03;8.20;;;5.60;;
19940;SDS011;10132;50.864;5.176;2023-06-19T10:06:13;5.63;;;5.05;;
19940;SDS011;10132;50.864;5.176;2023-06-19T10:08:25;7.93;;;4.55;;
19940;SDS011;10132;50.864;5.176;2023-06-19T10:10:30;6.20;;;4.78;;
19940;SDS011;10132;50.864;5.176;2023-06-19T10:12:34;6.97;;;4.78;;
19940;SDS011;10132;50.864;5.176;2023-06-19T10:14:44;6.03;;;5.10;;
19940;SDS011;10132;50.864;5.176;2023-06-19T10:16:48;7.50;;;6.72;;
19940;SDS011;10132;50.864;5.176;2023-06-19T10:18:50;6.43;;;5.43;;
19940;SDS011;10132;50.864;5.176;2023-06-19T10:20:53;6.85;;;5.47;;
19940;SDS011;10132;50.864;5.176;2023-06-19T10:22:58;9.13;;;5.40;;
19940;SDS011;10132;50.864;5.176;2023-06-19T10:25:01;6.90;;;5.20;;
19940;SDS011;10132;50.864;5.176;2023-06-19T10:27:04;6.72;;;5.45;;
19940;SDS011;10132;50.864;5.176;2023-06-19T10:29:13;8.55;;;5.70;;
19940;SDS011;10132;50.864;5.176;2023-06-19T10:31:15;6.38;;;5.70;;
19940;SDS011;10132;50.864;5.176;2023-06-19T10:33:17;7.18;;;5.10;;
19940;SDS011;10132;50.864;5.176;2023-06-19T10:35:19;6.15;;;5.30;;
19940;SDS011;10132;50.864;5.176;2023-06-19T10:37:31;9.05;;;6.07;;
19940;SDS011;10132;50.864;5.176;2023-06-19T10:39:35;7.50;;;5.95;;
19940;SDS011;10132;50.864;5.176;2023-06-19T10:41:39;8.90;;;5.57;;
19940;SDS011;10132;50.864;5.176;2023-06-19T10:43:41;6.82;;;6.10;;
19940;SDS011;10132;50.864;5.176;2023-06-19T10:45:43;9.98;;;5.47;;
19940;SDS011;10132;50.864;5.176;2023-06-19T10:47:45;6.60;;;6.00;;
19940;SDS011;10132;50.864;5.176;2023-06-19T10:49:47;6.35;;;5.50;;
19940;SDS011;10132;50.864;5.176;2023-06-19T10:51:49;8.02;;;6.07;;
19940;SDS011;10132;50.864;5.176;2023-06-19T10:53:54;7.20;;;5.80;;
19940;SDS011;10132;50.864;5.176;2023-06-19T10:55:59;6.65;;;5.25;;
19940;SDS011;10132;50.864;5.176;2023-06-19T10:58:02;8.18;;;6.10;;
19940;SDS011;10132;50.864;5.176;2023-06-19T11:00:04;7.05;;;6.07;;
19940;SDS011;10132;50.864;5.176;2023-06-19T11:02:11;8.35;;;5.97;;
19940;SDS011;10132;50.864;5.176;2023-06-19T11:04:15;9.52;;;5.20;;
19940;SDS011;10132;50.864;5.176;2023-06-19T11:06:19;7.03;;;6.00;;
19940;SDS011;10132;50.864;5.176;2023-06-19T11:08:21;6.78;;;5.50;;
19940;SDS011;10132;50.864;5.176;2023-06-19T11:10:24;7.03;;;5.90;;
19940;SDS011;10132;50.864;5.176;2023-06-19T11:12:28;7.35;;;5.80;;
19940;SDS011;10132;50.864;5.176;2023-06-19T11:14:30;7.60;;;6.07;;
19940;SDS011;10132;50.864;5.176;2023-06-19T11:16:32;8.98;;;6.80;;
19940;SDS011;10132;50.864;5.176;2023-06-19T11:18:34;7.45;;;6.35;;
19940;SDS011;10132;50.864;5.176;2023-06-19T11:20:43;7.47;;;6.20;;
19940;SDS011;10132;50.864;5.176;2023-06-19T11:22:46;7.25;;;5.75;;
19940;SDS011;10132;50.864;5.176;2023-06-19T11:24:48;7.40;;;6.03;;
19940;SDS011;10132;50.864;5.176;2023-06-19T11:26:51;6.95;;;6.35;;
19940;SDS011;10132;50.864;5.176;2023-06-19T11:28:56;9.02;;;5.93;;
19940;SDS011;10132;50.864;5.176;2023-06-19T11:30:58;10.05;;;6.03;;
19940;SDS011;10132;50.864;5.176;2023-06-19T11:33:01;7.60;;;5.80;;
19940;SDS011;10132;50.864;5.176;2023-06-19T11:35:07;8.90;;;6.63;;
19940;SDS011;10132;50.864;5.176;2023-06-19T11:37:11;7.63;;;6.43;;
19940;SDS011;10132;50.864;5.176;2023-06-19T11:39:14;8.32;;;6.57;;
19940;SDS011;10132;50.864;5.176;2023-06-19T11:41:24;7.85;;;6.13;;
19940;SDS011;10132;50.864;5.176;2023-06-19T11:43:28;6.88;;;5.90;;
19940;SDS011;10132;50.864;5.176;2023-06-19T11:45:32;7.18;;;6.18;;
19940;SDS011;10132;50.864;5.176;2023-06-19T11:47:34;7.47;;;5.38;;
19940;SDS011;10132;50.864;5.176;2023-06-19T11:49:37;8.80;;;6.10;;
19940;SDS011;10132;50.864;5.176;2023-06-19T11:51:39;7.38;;;5.68;;
19940;SDS011;10132;50.864;5.176;2023-06-19T11:53:41;6.97;;;5.57;;
19940;SDS011;10132;50.864;5.176;2023-06-19T11:55:43;7.88;;;5.50;;
19940;SDS011;10132;50.864;5.176;2023-06-19T11:57:45;7.95;;;5.82;;
19940;SDS011;10132;50.864;5.176;2023-06-19T11:59:47;6.70;;;5.82;;
19940;SDS011;10132;50.864;5.176;2023-06-19T12:01:50;7.57;;;5.80;;
19940;SDS011;10132;50.864;5.176;2023-06-19T12:03:52;7.57;;;5.57;;
19940;SDS011;10132;50.864;5.176;2023-06-19T12:05:54;6.93;;;5.45;;
19940;SDS011;10132;50.864;5.176;2023-06-19T12:07:56;6.25;;;5.65;;
19940;SDS011;10132;50.864;5.176;2023-06-19T12:09:58;8.55;;;5.88;;
19940;SDS011;10132;50.864;5.176;2023-06-19T12:12:00;7.03;;;5.32;;
19940;SDS011;10132;50.864;5.176;2023-06-19T12:14:02;8.30;;;5.70;;
19940;SDS011;10132;50.864;5.176;2023-06-19T12:16:04;7.30;;;5.78;;
19940;SDS011;10132;50.864;5.176;2023-06-19T12:18:08;6.63;;;5.55;;
19940;SDS011;10132;50.864;5.176;2023-06-19T12:20:12;6.60;;;5.88;;
19940;SDS011;10132;50.864;5.176;2023-06-19T12:22:14;7.68;;;5.57;;